Monday, July 28, 2014
14:30 UTC
  |  Log In   |  Register Free
Airport Search:

Visalia Municipal Airport
(KVIS)

Visalia Municipal Airport Diagram
No Airport Diagram Available

FAA data valid effective July 24, 2014 until September 18, 2014 (unless otherwise noted).

 
 
 
 
 
 
 
 
 
 
 
 
 
 

Current Aviation Weather for Visalia Municipal Airport (KVIS)

The most recent METAR observation for KVIS was updated at: 1355 UTC
METAR Summary (Translated METAR)
KVIS
281355Z AUTO 12003KT 10SM CLR 22/14 A2998 RMK AO1
KHJO
(11.4 nm SW from KVIS)
281253Z AUTO 23003KT 10SM CLR 25/13 A2995 RMK AO2 SLP141 T02500128 $
TAF Summary (Translated TAF)
KVIS
281122Z 2812/2912 VRB04KT P6SM BKN150 FM282200 31008KT P6SM BKN150 FM290800 VRB04KT P6SM BKN150
  Airport Weather Conditions for KVIS

 Current Weather at VIS
72° F
Fair
Southeast winds at 3.5 mph
VIS NOAA Radar

Pressure: 29.98 in
Humidity: 61%
Wind: Southeast at 3.5 MPH (3 KT)
Dew Point: 57.2°F
Visibility: 10.00 mi


Airport Weather Forecast for KVIS

Translated METAR and TAF for KVIS
Translated METAR for KVIS (1424 UTC 28 July 2014)
found at http://aviationweather.gov/adds/metars/
 
METAR text: KVIS 281415Z AUTO 00000KT 10SM CLR 23/14 A2999 RMK AO1
Conditions at: KVIS (VISALIA MUNI , CA, US) observed 1415 UTC 28 July 2014
Temperature: 23.0°C (73°F)
Dewpoint: 14.0°C (57°F) [RH = 57%]
Pressure (altimeter): 29.99 inches Hg (1015.7 mb)
Winds: calm
Visibility: 10 or more miles (16+ km)
Ceiling: at least 12,000 feet AGL
Clouds: sky clear below 12,000 feet AGL
Weather: automated observation with no human augmentation;
there may or may not be significant weather present at this time
Translated TAF for KVIS
Forecast for: KVIS (VISALIA MUNI , CA, US)
TAF Text: KVIS 281122Z 2812/2912 VRB04KT P6SM BKN150
Forecast period: 1200 to 2200 UTC 28 July 2014
Forecast type: FROM: standard forecast or significant change
Winds: variable direction winds at 5 MPH (4 knots; 2.1 m/s)
Visibility: 6 or more miles (10+ km)
Ceiling: 15000 feet AGL
Clouds: broken clouds at 15000 feet AGL
Weather: no significant weather forecast for this period
TAF Text: FM282200 31008KT P6SM BKN150
Forecast period: 2200 UTC 28 July 2014 to 0800 UTC 29 July 2014
Forecast type: FROM: standard forecast or significant change
Winds: from the NW (310 degrees) at 9 MPH (8 knots; 4.2 m/s)
Visibility: 6 or more miles (10+ km)
Ceiling: 15000 feet AGL
Clouds: broken clouds at 15000 feet AGL
Weather: no significant weather forecast for this period
TAF Text: FM290800 VRB04KT P6SM BKN150
Forecast period: 0800 to 1200 UTC 29 July 2014
Forecast type: FROM: standard forecast or significant change
Winds: variable direction winds at 5 MPH (4 knots; 2.1 m/s)
Visibility: 6 or more miles (10+ km)
Ceiling: 15000 feet AGL
Clouds: broken clouds at 15000 feet AGL
Weather: no significant weather forecast for this period

Find All Airport Services Find A Hotel Find A Rental Car Find A Golf Course Find A Restaurant $100 Hamburger



FBO's on the Field
FBO Company Facility Photos Services Transportation Aviation Fuel Prices: Prices include tax
Catering Weather Repair Courtesy Rental Type 100LL JetA JetA+ MOGAS 8087
 
Add another FBO Facility Photos Catering Weather Repair Courtesy Rental Type 100LL JetA JetA+ MOGAS 8087
Services Transportation Aviation Fuel Prices: Prices include tax
There are no FBO's currently reporting fuel at VIS. List your FBO now


GlobalAir.com Airport Resource Center model-print
model-print
model-print
model-print